createdAt,value
2023-11-12T00:01:41.820Z,32.60
2023-11-12T00:04:09.129Z,31.30
2023-11-12T00:06:36.608Z,32.00
2023-11-12T00:09:05.360Z,30.85
2023-11-12T00:11:37.295Z,31.75
2023-11-12T00:14:04.775Z,31.60
2023-11-12T00:16:31.866Z,31.13
2023-11-12T00:18:59.222Z,29.65
2023-11-12T00:21:26.220Z,31.17
2023-11-12T00:23:53.236Z,31.15
2023-11-12T00:26:20.330Z,30.60
2023-11-12T00:28:47.294Z,31.23
2023-11-12T00:31:14.331Z,30.23
2023-11-12T00:33:42.527Z,30.23
2023-11-12T00:36:10.066Z,31.10
2023-11-12T00:38:37.238Z,31.13
2023-11-12T00:41:04.921Z,31.90
2023-11-12T00:43:31.916Z,32.50
2023-11-12T00:46:02.222Z,31.90
2023-11-12T00:48:29.553Z,31.25
2023-11-12T00:50:56.866Z,31.40
2023-11-12T00:53:24.559Z,31.15
2023-11-12T00:55:51.530Z,31.30
2023-11-12T00:58:18.560Z,30.25
2023-11-12T01:00:45.478Z,31.75
2023-11-12T01:03:13.465Z,30.23
2023-11-12T01:05:40.518Z,30.55
2023-11-12T01:08:08.169Z,29.10
2023-11-12T01:10:35.207Z,31.55
2023-11-12T01:13:02.220Z,31.05
2023-11-12T01:15:30.599Z,31.30
2023-11-12T01:17:58.393Z,30.60
2023-11-12T01:20:25.496Z,30.23
2023-11-12T01:22:52.426Z,28.90
2023-11-12T01:25:19.850Z,30.10
2023-11-12T01:27:46.916Z,28.60
2023-11-12T01:30:14.177Z,29.00
2023-11-12T01:32:41.240Z,28.52
2023-11-12T01:35:08.585Z,27.95
2023-11-12T01:37:36.002Z,29.38
2023-11-12T01:40:05.435Z,28.92
2023-11-12T01:42:32.735Z,29.23
2023-11-12T01:45:01.242Z,28.73
2023-11-12T01:47:28.753Z,28.00
2023-11-12T01:49:55.778Z,29.15
2023-11-12T01:52:23.337Z,28.67
2023-11-12T01:54:50.814Z,28.65
2023-11-12T01:57:19.822Z,28.17
2023-11-12T01:59:46.947Z,28.42
2023-11-12T02:02:14.443Z,28.52
2023-11-12T02:04:41.826Z,29.05
2023-11-12T02:07:08.728Z,28.63
2023-11-12T02:09:35.661Z,27.73
2023-11-12T02:12:02.819Z,28.17
2023-11-12T02:14:31.275Z,27.65
2023-11-12T02:16:58.883Z,27.90
2023-11-12T02:19:30.650Z,28.63
2023-11-12T02:21:58.168Z,28.40
2023-11-12T02:24:25.531Z,28.13
2023-11-12T02:26:52.954Z,28.27
2023-11-12T02:29:20.309Z,29.23
2023-11-12T02:31:47.229Z,28.33
2023-11-12T02:34:14.284Z,28.50
2023-11-12T02:36:42.373Z,27.90
2023-11-12T02:39:09.576Z,29.27
2023-11-12T02:41:40.818Z,30.15
2023-11-12T02:44:09.226Z,30.00
2023-11-12T02:46:37.136Z,29.40
2023-11-12T02:49:22.237Z,30.08
2023-11-12T02:51:51.342Z,29.20
2023-11-12T02:54:18.319Z,29.40
2023-11-12T02:56:45.288Z,29.75
2023-11-12T02:59:12.251Z,30.33
2023-11-12T03:01:39.197Z,29.60
2023-11-12T03:04:06.589Z,30.35
2023-11-12T03:06:33.552Z,30.90
2023-11-12T03:09:00.461Z,30.35
2023-11-12T03:11:28.468Z,30.45
2023-11-12T03:13:56.974Z,30.42
2023-11-12T03:16:24.740Z,30.58
2023-11-12T03:18:51.878Z,30.00
2023-11-12T03:21:19.534Z,29.48
2023-11-12T03:23:46.462Z,31.92
2023-11-12T03:26:13.513Z,31.13
2023-11-12T03:28:40.465Z,30.92
2023-11-12T03:31:07.462Z,31.45
2023-11-12T03:33:35.056Z,31.05
2023-11-12T03:36:02.803Z,32.03
2023-11-12T03:38:30.074Z,31.98
2023-11-12T03:40:57.369Z,30.75
2023-11-12T03:43:24.550Z,30.23
2023-11-12T03:45:51.484Z,30.38
2023-11-12T03:48:18.468Z,30.52
2023-11-12T03:50:45.376Z,30.15
2023-11-12T03:53:12.719Z,30.73
2023-11-12T03:55:39.644Z,29.55
2023-11-12T03:58:06.610Z,30.13
2023-11-12T04:00:33.617Z,30.67
2023-11-12T04:03:00.738Z,30.83
2023-11-12T04:05:27.805Z,29.85
2023-11-12T04:07:54.710Z,29.90
2023-11-12T04:10:21.695Z,30.50
2023-11-12T04:12:48.839Z,29.55
2023-11-12T04:15:15.913Z,31.52
2023-11-12T04:17:42.885Z,31.25
2023-11-12T04:20:10.726Z,30.52
2023-11-12T04:22:37.674Z,31.33
2023-11-12T04:25:08.229Z,31.08
2023-11-12T04:27:35.195Z,30.60
2023-11-12T04:30:02.128Z,30.00
2023-11-12T04:32:29.136Z,32.47
2023-11-12T04:34:56.193Z,30.35
2023-11-12T04:37:23.100Z,30.70
2023-11-12T04:39:50.093Z,30.17
2023-11-12T04:42:17.850Z,31.75
2023-11-12T04:44:44.807Z,31.15
2023-11-12T04:47:11.778Z,33.83
2023-11-12T04:49:39.567Z,33.00
2023-11-12T04:52:07.738Z,33.10
2023-11-12T04:54:34.766Z,32.78
2023-11-12T04:57:01.755Z,31.77
2023-11-12T04:59:28.709Z,32.85
2023-11-12T05:01:55.739Z,32.47
2023-11-12T05:04:22.928Z,30.75
2023-11-12T05:06:49.913Z,31.90
2023-11-12T05:09:17.955Z,31.42
2023-11-12T05:11:46.417Z,32.28
2023-11-12T05:14:13.374Z,32.00
2023-11-12T05:16:43.694Z,31.92
2023-11-12T05:19:10.736Z,30.92
2023-11-12T05:21:37.719Z,32.15
2023-11-12T05:24:06.135Z,30.50
2023-11-12T05:26:33.330Z,30.48
2023-11-12T05:29:00.553Z,30.95
2023-11-12T05:31:27.566Z,31.45
2023-11-12T05:33:54.743Z,30.88
2023-11-12T05:36:22.102Z,32.95
2023-11-12T05:38:49.038Z,31.13
2023-11-12T05:41:15.984Z,32.92
2023-11-12T05:43:43.119Z,32.75
2023-11-12T05:46:10.728Z,31.98
2023-11-12T05:48:38.243Z,32.83
2023-11-12T05:51:05.696Z,32.67
2023-11-12T05:53:33.176Z,33.03
2023-11-12T05:56:02.477Z,32.83
2023-11-12T05:58:29.360Z,32.70
2023-11-12T06:00:56.925Z,33.72
2023-11-12T06:03:24.022Z,35.08
2023-11-12T06:05:50.994Z,35.78
2023-11-12T06:08:18.116Z,36.17
2023-11-12T06:10:45.101Z,37.05
2023-11-12T06:13:12.020Z,37.75
2023-11-12T06:15:40.920Z,37.05
2023-11-12T06:18:08.044Z,37.92
2023-11-12T06:20:35.196Z,36.03
2023-11-12T06:23:02.156Z,35.05
2023-11-12T06:25:29.074Z,34.00
2023-11-12T06:27:56.086Z,33.30
2023-11-12T06:30:23.143Z,32.53
2023-11-12T06:32:50.158Z,33.83
2023-11-12T06:35:17.115Z,32.15
2023-11-12T06:37:44.431Z,32.10
2023-11-12T06:40:12.529Z,32.47
2023-11-12T06:42:43.101Z,34.30
2023-11-12T06:45:10.701Z,33.45
2023-11-12T06:47:37.938Z,32.55
2023-11-12T06:50:06.254Z,31.60
2023-11-12T06:52:33.394Z,32.85
2023-11-12T06:55:02.873Z,33.95
2023-11-12T06:57:29.860Z,34.08
2023-11-12T06:59:57.281Z,33.22
2023-11-12T07:02:24.265Z,33.47
2023-11-12T07:04:51.203Z,32.65
2023-11-12T07:07:18.210Z,33.67
2023-11-12T07:09:47.544Z,31.58
2023-11-12T07:12:16.392Z,33.13
2023-11-12T07:14:43.664Z,33.08
2023-11-12T07:17:11.229Z,33.25
2023-11-12T07:19:38.163Z,31.85
2023-11-12T07:22:05.845Z,31.08
2023-11-12T07:24:36.930Z,31.58
2023-11-12T07:29:31.744Z,31.02
2023-11-12T07:31:58.749Z,30.05
2023-11-12T07:34:25.667Z,30.25
2023-11-12T07:36:52.745Z,29.83
2023-11-12T07:39:21.584Z,30.50
2023-11-12T07:41:48.502Z,30.42
2023-11-12T07:44:15.433Z,30.55
2023-11-12T07:46:42.759Z,31.88
2023-11-12T07:49:09.804Z,30.10
2023-11-12T07:51:36.764Z,30.23
2023-11-12T07:54:05.418Z,28.38
2023-11-12T07:56:39.336Z,27.30
2023-11-12T07:59:09.621Z,26.50
2023-11-12T08:01:36.840Z,29.13
2023-11-12T08:04:04.104Z,28.00
2023-11-12T08:06:31.162Z,27.33
2023-11-12T08:08:59.650Z,26.58
2023-11-12T08:11:28.587Z,27.77
2023-11-12T08:13:56.510Z,27.48
2023-11-12T08:16:23.622Z,25.15
2023-11-12T08:18:51.563Z,26.77
2023-11-12T08:21:19.718Z,26.17
2023-11-12T08:23:46.655Z,26.98
2023-11-12T08:26:14.761Z,25.58
2023-11-12T08:28:41.673Z,25.58
2023-11-12T08:31:08.590Z,25.08
2023-11-12T08:33:35.648Z,24.60
2023-11-12T08:36:02.739Z,23.65
2023-11-12T08:38:29.749Z,24.80
2023-11-12T08:40:56.682Z,23.73
2023-11-12T08:43:25.309Z,23.15
2023-11-12T08:45:52.265Z,22.77
2023-11-12T08:48:19.652Z,22.65
2023-11-12T08:50:46.655Z,22.45
2023-11-12T08:53:13.670Z,22.33
2023-11-12T08:55:42.311Z,21.10
2023-11-12T08:58:09.494Z,20.10
2023-11-12T09:00:36.451Z,18.95
2023-11-12T09:03:03.593Z,19.17
2023-11-12T09:05:32.799Z,17.75
2023-11-12T09:08:01.184Z,18.27
2023-11-12T09:10:28.062Z,16.80
2023-11-12T09:12:55.035Z,17.25
2023-11-12T09:15:22.005Z,17.30
2023-11-12T09:17:49.001Z,16.38
2023-11-12T09:20:17.281Z,16.00
2023-11-12T09:22:44.377Z,16.25
2023-11-12T09:25:12.743Z,15.57
2023-11-12T09:27:39.916Z,20.17
2023-11-12T09:30:09.708Z,17.02
2023-11-12T09:32:39.890Z,15.85
2023-11-12T09:35:07.939Z,16.00
2023-11-12T09:37:34.904Z,17.10
2023-11-12T09:40:02.408Z,17.08
2023-11-12T09:42:32.818Z,18.02
2023-11-12T09:45:01.127Z,17.17
2023-11-12T09:47:49.837Z,17.50
2023-11-12T09:50:18.236Z,18.90
2023-11-12T09:52:47.825Z,17.65
2023-11-12T09:55:19.391Z,18.10
2023-11-12T09:57:47.387Z,19.00
2023-11-12T10:00:15.126Z,18.45
2023-11-12T10:02:42.288Z,17.00
2023-11-12T10:05:12.196Z,19.02
2023-11-12T10:07:39.470Z,17.45
2023-11-12T10:10:24.388Z,16.95
2023-11-12T10:12:54.147Z,17.50
2023-11-12T10:15:25.527Z,16.95
2023-11-12T10:17:53.618Z,16.70
2023-11-12T10:20:31.705Z,15.50
2023-11-12T10:22:59.002Z,15.88
2023-11-12T10:25:52.199Z,15.82
2023-11-12T10:28:19.092Z,14.50
2023-11-12T10:30:48.053Z,13.90
2023-11-12T10:33:15.929Z,13.40
2023-11-12T10:35:44.211Z,14.38
2023-11-12T10:38:14.131Z,13.27
2023-11-12T10:40:57.633Z,13.18
2023-11-12T10:43:24.761Z,12.65
2023-11-12T10:46:00.786Z,12.27
2023-11-12T10:48:38.639Z,12.77
2023-11-12T10:51:07.857Z,12.25
2023-11-12T10:53:37.573Z,11.70
2023-11-12T10:56:07.274Z,12.88
2023-11-12T10:58:35.028Z,12.57
2023-11-12T11:01:05.042Z,11.90
2023-11-12T11:03:34.640Z,11.10
2023-11-12T11:06:07.136Z,11.57
2023-11-12T11:08:35.817Z,11.52
2023-11-12T11:11:08.382Z,10.48
2023-11-12T11:13:38.096Z,11.25
2023-11-12T11:16:06.297Z,11.07
2023-11-12T11:18:33.505Z,9.63
2023-11-12T11:21:32.664Z,9.77
2023-11-12T11:24:00.302Z,10.50
2023-11-12T11:26:41.556Z,10.27
2023-11-12T11:29:11.761Z,10.60
2023-11-12T11:32:00.274Z,9.50
2023-11-12T11:34:41.045Z,9.30
2023-11-12T11:37:09.836Z,8.57
2023-11-12T11:39:38.367Z,8.23
2023-11-12T11:42:07.492Z,8.48
2023-11-12T11:44:45.116Z,8.93
2023-11-12T11:47:23.876Z,10.70
2023-11-12T11:49:59.991Z,10.38
2023-11-12T11:52:29.140Z,11.00
2023-11-12T11:55:01.555Z,9.43
2023-11-12T11:57:29.448Z,10.88
2023-11-12T11:59:58.636Z,8.70
2023-11-12T12:02:26.529Z,7.72
2023-11-12T12:04:59.141Z,7.97
2023-11-12T12:07:28.537Z,7.20
2023-11-12T12:09:59.871Z,6.93
2023-11-12T12:12:28.014Z,6.60
2023-11-12T12:14:56.161Z,6.07
2023-11-12T12:17:23.743Z,6.63
2023-11-12T12:19:55.269Z,6.38
2023-11-12T12:22:29.075Z,7.65
2023-11-12T12:25:01.694Z,6.70
2023-11-12T12:27:28.777Z,8.35
2023-11-12T12:29:56.324Z,9.80
2023-11-12T12:32:24.818Z,10.40
2023-11-12T12:34:58.836Z,11.13
2023-11-12T12:37:29.024Z,11.38
2023-11-12T12:40:12.158Z,9.90
2023-11-12T12:42:40.129Z,9.48
2023-11-12T12:45:17.617Z,8.20
2023-11-12T12:47:45.872Z,7.68
2023-11-12T12:50:31.313Z,8.48
2023-11-12T12:53:19.597Z,6.20
2023-11-12T12:55:47.666Z,5.60
2023-11-12T12:58:18.142Z,5.80
2023-11-12T13:00:45.781Z,5.50
2023-11-12T13:03:27.698Z,4.93
2023-11-12T13:05:57.965Z,4.55
2023-11-12T13:08:25.397Z,3.78
2023-11-12T13:10:52.566Z,4.00
2023-11-12T13:13:20.349Z,3.92
2023-11-12T13:15:50.149Z,3.40
2023-11-12T13:18:19.073Z,3.95
2023-11-12T13:20:46.721Z,3.67
2023-11-12T13:23:13.701Z,3.75
2023-11-12T13:25:43.315Z,3.70
2023-11-12T13:28:13.306Z,3.50
2023-11-12T13:30:40.498Z,4.00
2023-11-12T13:33:08.984Z,4.30
2023-11-12T13:35:36.563Z,4.38
2023-11-12T13:38:03.601Z,4.00
2023-11-12T13:40:31.872Z,3.55
2023-11-12T13:42:59.083Z,3.80
2023-11-12T13:45:26.229Z,4.18
2023-11-12T13:47:55.465Z,3.53
2023-11-12T13:50:26.446Z,2.90
2023-11-12T13:52:59.459Z,2.85
2023-11-12T13:55:29.295Z,2.90
2023-11-12T13:57:57.618Z,2.80
2023-11-12T14:00:31.869Z,2.92
2023-11-12T14:03:02.096Z,3.00
2023-11-12T14:05:29.575Z,3.37
2023-11-12T14:07:57.563Z,3.00
2023-11-12T14:10:26.356Z,2.92
2023-11-12T14:12:53.826Z,2.90
2023-11-12T14:15:23.361Z,3.40
2023-11-12T14:17:50.733Z,4.07
2023-11-12T14:20:23.806Z,5.10
2023-11-12T14:22:52.269Z,5.45
2023-11-12T14:25:24.138Z,6.32
2023-11-12T14:27:51.592Z,7.00
2023-11-12T14:30:20.400Z,7.60
2023-11-12T14:32:48.521Z,9.35
2023-11-12T14:35:18.637Z,9.35
2023-11-12T14:37:46.492Z,9.85
2023-11-12T14:40:15.963Z,10.45
2023-11-12T14:42:43.327Z,10.02
2023-11-12T14:45:21.547Z,10.65
2023-11-12T14:47:55.637Z,11.45
2023-11-12T14:50:23.083Z,10.60
2023-11-12T14:52:52.069Z,10.38
2023-11-12T14:55:25.295Z,10.60
2023-11-12T14:57:57.823Z,10.95
2023-11-12T15:00:29.798Z,12.75
2023-11-12T15:02:58.893Z,12.73
2023-11-12T15:05:26.338Z,12.95
2023-11-12T15:07:53.502Z,12.95
2023-11-12T15:10:22.216Z,14.15
2023-11-12T15:12:49.917Z,14.15
2023-11-12T15:15:20.384Z,13.93
2023-11-12T15:17:47.891Z,15.07
2023-11-12T15:20:15.527Z,13.65
2023-11-12T15:22:43.428Z,14.00
2023-11-12T15:25:14.884Z,14.98
2023-11-12T15:27:46.730Z,14.63
2023-11-12T15:30:14.937Z,13.98
2023-11-12T15:32:43.093Z,15.38
2023-11-12T15:35:15.293Z,16.88
2023-11-12T15:37:43.200Z,18.45
2023-11-12T15:40:20.898Z,19.08
2023-11-12T15:42:51.182Z,17.92
2023-11-12T15:45:19.331Z,17.08
2023-11-12T15:47:47.832Z,15.60
2023-11-12T15:50:15.881Z,14.68
2023-11-12T15:52:43.636Z,14.48
2023-11-12T15:55:14.821Z,13.38
2023-11-12T15:57:42.874Z,15.00
2023-11-12T16:00:14.505Z,17.27
2023-11-12T16:02:42.653Z,17.50
2023-11-12T16:05:11.206Z,16.60
2023-11-12T16:07:43.105Z,15.60
2023-11-12T16:10:11.946Z,15.20
2023-11-12T16:12:40.214Z,14.88
2023-11-12T16:15:13.331Z,14.85
2023-11-12T16:17:41.439Z,15.27
2023-11-12T16:20:13.749Z,15.13
2023-11-12T16:22:41.478Z,16.33
2023-11-12T16:25:10.095Z,15.95
2023-11-12T16:27:37.974Z,14.73
2023-11-12T16:30:06.346Z,14.90
2023-11-12T16:32:33.624Z,15.07
2023-11-12T16:35:01.352Z,16.10
2023-11-12T16:37:28.395Z,14.85
2023-11-12T16:39:55.670Z,14.52
2023-11-12T16:42:26.008Z,14.82
2023-11-12T16:44:53.025Z,14.48
2023-11-12T16:47:24.718Z,14.35
2023-11-12T16:49:54.491Z,14.85
2023-11-12T16:52:21.856Z,15.32
2023-11-12T16:54:48.798Z,16.35
2023-11-12T16:57:16.100Z,15.95
2023-11-12T16:59:43.892Z,16.13
2023-11-12T17:02:12.628Z,15.65
2023-11-12T17:04:40.070Z,15.30
2023-11-12T17:07:12.454Z,14.85
2023-11-12T17:09:42.197Z,14.48
2023-11-12T17:12:09.828Z,15.60
2023-11-12T17:14:37.177Z,15.80
2023-11-12T17:17:04.390Z,14.85
2023-11-12T17:19:31.756Z,15.18
2023-11-12T17:21:59.127Z,15.52
2023-11-12T17:24:26.107Z,13.88
2023-11-12T17:26:54.813Z,13.63
2023-11-12T17:29:22.499Z,14.15
2023-11-12T17:31:50.758Z,13.25
2023-11-12T17:34:20.031Z,13.88
2023-11-12T17:36:49.123Z,16.13
2023-11-12T17:39:23.564Z,15.30
2023-11-12T17:41:52.388Z,14.88
2023-11-12T17:44:19.411Z,14.45
2023-11-12T17:46:48.195Z,15.60
2023-11-12T17:49:15.418Z,18.10
2023-11-12T17:51:43.388Z,16.70
2023-11-12T17:54:10.552Z,14.88
2023-11-12T17:56:38.259Z,13.82
2023-11-12T17:59:06.151Z,14.55
2023-11-12T18:01:33.654Z,14.60
2023-11-12T18:04:01.029Z,14.40
2023-11-12T18:06:28.232Z,14.10
2023-11-12T18:08:55.292Z,12.23
2023-11-12T18:11:23.511Z,11.60
2023-11-12T18:13:50.545Z,11.38
2023-11-12T18:16:20.832Z,11.65
2023-11-12T18:18:47.863Z,11.02
2023-11-12T18:21:15.150Z,10.90
2023-11-12T18:23:42.371Z,12.45
2023-11-12T18:26:10.288Z,12.98
2023-11-12T18:28:38.787Z,12.77
2023-11-12T18:31:07.230Z,12.93
2023-11-12T18:33:36.373Z,13.32
2023-11-12T18:36:03.474Z,13.80
2023-11-12T18:38:30.979Z,14.63
2023-11-12T18:40:57.881Z,13.32
2023-11-12T18:43:26.065Z,12.93
2023-11-12T18:45:57.817Z,11.75
2023-11-12T18:48:25.370Z,11.57
2023-11-12T18:50:52.764Z,11.02
2023-11-12T18:53:22.693Z,10.32
2023-11-12T18:55:49.733Z,9.10
2023-11-12T18:58:20.002Z,8.13
2023-11-12T19:00:47.140Z,8.40
2023-11-12T19:03:14.242Z,7.72
2023-11-12T19:05:42.296Z,7.30
2023-11-12T19:08:14.612Z,7.55
2023-11-12T19:10:41.579Z,7.78
2023-11-12T19:13:09.706Z,8.68
2023-11-12T19:15:40.263Z,9.77
2023-11-12T19:18:07.872Z,11.20
2023-11-12T19:20:39.017Z,11.45
2023-11-12T19:25:33.632Z,10.90
2023-11-12T19:28:03.572Z,12.93
2023-11-12T19:30:32.681Z,11.80
2023-11-12T19:33:02.189Z,12.45
2023-11-12T19:35:29.774Z,12.73
2023-11-12T19:37:57.963Z,13.60
2023-11-12T19:40:26.682Z,14.60
2023-11-12T19:42:53.829Z,14.05
2023-11-12T19:45:21.329Z,12.05
2023-11-12T19:47:53.202Z,12.98
2023-11-12T19:50:22.251Z,12.82
2023-11-12T19:52:50.290Z,13.23
2023-11-12T19:55:17.606Z,11.98
2023-11-12T19:57:45.820Z,11.30
2023-11-12T20:00:14.002Z,11.98
2023-11-12T20:02:41.311Z,11.18
2023-11-12T20:05:08.632Z,11.30
2023-11-12T20:07:35.597Z,11.27
2023-11-12T20:10:03.452Z,11.52
2023-11-12T20:12:30.730Z,11.20
2023-11-12T20:14:57.646Z,11.02
2023-11-12T20:17:24.586Z,11.55
2023-11-12T20:19:51.616Z,11.15
2023-11-12T20:22:19.022Z,9.95
2023-11-12T20:24:46.796Z,10.05
2023-11-12T20:27:16.507Z,9.82
2023-11-12T20:29:44.279Z,9.20
2023-11-12T20:32:15.642Z,9.38
2023-11-12T20:34:45.918Z,8.77
2023-11-12T20:37:14.756Z,9.18
2023-11-12T20:39:41.843Z,9.27
2023-11-12T20:42:11.684Z,9.93
2023-11-12T20:44:42.530Z,10.10
2023-11-12T20:47:12.453Z,9.77
2023-11-12T20:49:40.278Z,10.00
2023-11-12T20:52:09.701Z,8.93
2023-11-12T20:54:38.767Z,9.45
2023-11-12T20:57:07.620Z,8.98
2023-11-12T20:59:35.211Z,9.07
2023-11-12T21:02:10.402Z,9.40
2023-11-12T21:04:45.737Z,9.35
2023-11-12T21:07:14.139Z,8.85
2023-11-12T21:09:41.655Z,8.77
2023-11-12T21:12:10.568Z,8.27
2023-11-12T21:15:30.287Z,8.75
2023-11-12T21:18:45.697Z,8.65
2023-11-12T21:24:30.368Z,10.10
2023-11-12T21:30:50.766Z,9.65
2023-11-12T21:37:30.912Z,9.63
2023-11-12T21:40:19.973Z,9.70
2023-11-12T21:43:11.141Z,10.02
2023-11-12T21:45:45.813Z,9.18
2023-11-12T21:51:47.768Z,9.25
2023-11-12T21:54:59.810Z,9.27
2023-11-12T22:00:41.916Z,9.55
2023-11-12T22:03:08.857Z,9.23
2023-11-12T22:05:35.896Z,9.75
2023-11-12T22:08:02.941Z,9.73
2023-11-12T22:10:29.877Z,10.48
2023-11-12T22:12:57.024Z,10.18
2023-11-12T22:15:24.098Z,9.45
2023-11-12T22:17:52.012Z,10.40
2023-11-12T22:20:19.023Z,9.77
2023-11-12T22:22:47.262Z,8.85
2023-11-12T22:25:18.144Z,9.07
2023-11-12T22:27:47.755Z,8.88
2023-11-12T22:30:16.708Z,8.70
2023-11-12T22:32:45.107Z,9.05
2023-11-12T22:35:12.603Z,9.15
2023-11-12T22:37:39.668Z,9.43
2023-11-12T22:40:08.535Z,9.07
2023-11-12T22:42:38.849Z,9.00
2023-11-12T22:45:10.359Z,8.88
2023-11-12T22:47:38.007Z,9.07
2023-11-12T22:50:06.120Z,9.30
2023-11-12T22:52:33.020Z,9.20
2023-11-12T22:55:00.040Z,9.10
2023-11-12T22:57:29.331Z,9.35
2023-11-12T22:59:56.207Z,10.02
2023-11-12T23:02:23.150Z,9.27
2023-11-12T23:04:50.174Z,9.77
2023-11-12T23:07:18.964Z,9.68
2023-11-12T23:09:46.342Z,9.50
2023-11-12T23:12:13.542Z,9.80
2023-11-12T23:14:40.531Z,8.82
2023-11-12T23:17:08.897Z,7.80
2023-11-12T23:19:35.972Z,8.05
2023-11-12T23:22:05.695Z,7.75
2023-11-12T23:24:32.725Z,9.32
2023-11-12T23:26:59.918Z,8.88
2023-11-12T23:29:27.046Z,8.77
2023-11-12T23:31:56.512Z,9.27
2023-11-12T23:34:23.633Z,8.57
2023-11-12T23:36:50.572Z,9.43
2023-11-12T23:39:17.594Z,9.38
2023-11-12T23:41:44.615Z,9.77
2023-11-12T23:44:11.523Z,9.65
2023-11-12T23:46:38.458Z,9.15
2023-11-12T23:49:05.697Z,8.32
2023-11-12T23:51:32.694Z,8.05
2023-11-12T23:53:59.594Z,8.73
2023-11-12T23:56:27.047Z,12.50
2023-11-12T23:58:55.539Z,13.95
